createdAt,value
2017-11-04T00:01:45.038Z,26.67
2017-11-04T00:04:13.351Z,22.30
2017-11-04T00:06:40.847Z,24.90
2017-11-04T00:09:08.372Z,22.43
2017-11-04T00:11:35.889Z,23.10
2017-11-04T00:14:04.152Z,21.77
2017-11-04T00:16:31.645Z,23.60
2017-11-04T00:18:59.173Z,20.30
2017-11-04T00:21:27.433Z,24.77
2017-11-04T00:23:54.921Z,23.37
2017-11-04T00:26:22.434Z,24.87
2017-11-04T00:28:49.941Z,25.43
2017-11-04T00:31:17.445Z,25.83
2017-11-04T00:33:44.963Z,24.30
2017-11-04T00:36:12.469Z,20.40
2017-11-04T00:38:39.981Z,22.40
2017-11-04T00:41:07.506Z,20.40
2017-11-04T00:43:35.775Z,20.97
2017-11-04T00:46:04.051Z,21.07
2017-11-04T00:48:32.332Z,23.87
2017-11-04T00:51:00.588Z,25.37
2017-11-04T00:53:28.145Z,25.07
2017-11-04T00:55:55.679Z,25.17
2017-11-04T00:58:23.181Z,25.93
2017-11-04T01:00:51.677Z,27.07
2017-11-04T01:03:19.215Z,26.37
2017-11-04T01:05:47.710Z,26.13
2017-11-04T01:08:15.971Z,25.37
2017-11-04T01:10:44.253Z,26.70
2017-11-04T01:13:12.556Z,26.70
2017-11-04T01:15:40.221Z,27.40
2017-11-04T01:18:07.773Z,26.97
2017-11-04T01:20:35.299Z,26.53
2017-11-04T01:23:02.835Z,27.87
2017-11-04T01:25:30.357Z,26.83
2017-11-04T01:27:57.863Z,28.43
2017-11-04T01:30:26.131Z,27.20
2017-11-04T01:32:53.639Z,27.13
2017-11-04T01:35:21.183Z,27.93
2017-11-04T01:37:48.679Z,28.37
2017-11-04T01:40:16.223Z,27.97
2017-11-04T01:42:43.717Z,27.37
2017-11-04T01:45:11.307Z,27.43
2017-11-04T01:47:38.839Z,26.97
2017-11-04T01:50:06.355Z,26.10
2017-11-04T01:52:34.650Z,27.33
2017-11-04T01:55:02.229Z,28.83
2017-11-04T01:57:30.493Z,26.27
2017-11-04T01:59:59.493Z,27.83
2017-11-04T02:02:27.007Z,26.50
2017-11-04T02:04:54.511Z,27.53
2017-11-04T02:07:22.783Z,26.73
2017-11-04T02:09:50.292Z,27.27
2017-11-04T02:12:17.810Z,27.27
2017-11-04T02:14:46.088Z,25.83
2017-11-04T02:17:14.373Z,26.23
2017-11-04T02:19:41.957Z,27.27
2017-11-04T02:22:09.498Z,26.70
2017-11-04T02:24:37.017Z,27.83
2017-11-04T02:27:04.519Z,26.67
2017-11-04T02:29:32.009Z,27.57
2017-11-04T02:31:59.531Z,28.00
2017-11-04T02:34:27.026Z,27.20
2017-11-04T02:36:54.549Z,27.47
2017-11-04T02:39:22.065Z,22.67
2017-11-04T02:41:49.559Z,25.47
2017-11-04T02:44:17.047Z,26.43
2017-11-04T02:46:44.573Z,26.37
2017-11-04T02:49:12.065Z,24.10
2017-11-04T02:51:39.566Z,26.90
2017-11-04T02:54:07.865Z,27.73
2017-11-04T02:56:35.385Z,30.53
2017-11-04T02:59:03.674Z,29.10
2017-11-04T03:01:31.955Z,29.17
2017-11-04T03:04:00.273Z,30.57
2017-11-04T03:06:27.768Z,30.50
2017-11-04T03:08:56.048Z,29.80
2017-11-04T03:11:24.323Z,31.23
2017-11-04T03:13:51.859Z,29.83
2017-11-04T03:16:22.278Z,29.30
2017-11-04T03:18:49.805Z,30.37
2017-11-04T03:21:17.301Z,29.83
2017-11-04T03:23:44.865Z,31.60
2017-11-04T03:26:12.405Z,32.40
2017-11-04T03:31:13.867Z,32.33
2017-11-04T03:33:41.392Z,30.80
2017-11-04T03:36:09.652Z,30.07
2017-11-04T03:38:37.193Z,32.60
2017-11-04T03:41:05.500Z,31.90
2017-11-04T03:43:32.987Z,26.80
2017-11-04T03:46:00.497Z,31.57
2017-11-04T03:48:28.004Z,29.07
2017-11-04T03:50:55.545Z,26.70
2017-11-04T03:53:23.061Z,30.17
2017-11-04T03:55:51.536Z,31.23
2017-11-04T03:58:19.824Z,32.07
2017-11-04T04:00:47.343Z,33.13
2017-11-04T04:03:15.632Z,32.43
2017-11-04T04:05:43.884Z,29.77
2017-11-04T04:08:11.407Z,30.50
2017-11-04T04:10:38.978Z,31.43
2017-11-04T04:13:06.476Z,33.17
2017-11-04T04:15:33.987Z,31.43
2017-11-04T04:18:01.484Z,31.00
2017-11-04T04:20:28.976Z,30.20
2017-11-04T04:22:56.504Z,30.43
2017-11-04T04:25:23.991Z,31.80
2017-11-04T04:27:51.552Z,31.70
2017-11-04T04:30:19.078Z,30.63
2017-11-04T04:32:47.336Z,31.77
2017-11-04T04:35:14.867Z,31.63
2017-11-04T04:37:42.420Z,30.63
2017-11-04T04:40:09.918Z,31.77
2017-11-04T04:42:37.417Z,32.17
2017-11-04T04:45:04.968Z,32.63
2017-11-04T04:47:32.484Z,31.43
2017-11-04T04:49:59.982Z,28.73
2017-11-04T04:52:27.501Z,32.37
2017-11-04T04:54:54.992Z,29.00
2017-11-04T04:57:22.488Z,31.63
2017-11-04T04:59:50.000Z,28.17
2017-11-04T05:02:17.525Z,29.50
2017-11-04T05:04:45.028Z,32.77
2017-11-04T05:07:12.624Z,33.93
2017-11-04T05:09:40.118Z,33.30
2017-11-04T05:12:08.380Z,32.83
2017-11-04T05:14:36.682Z,34.03
2017-11-04T05:17:04.948Z,32.60
2017-11-04T05:19:33.225Z,32.33
2017-11-04T05:22:01.514Z,33.30
2017-11-04T05:24:29.003Z,33.27
2017-11-04T05:26:56.526Z,32.40
2017-11-04T05:29:24.038Z,30.97
2017-11-04T05:31:51.536Z,32.03
2017-11-04T05:34:19.034Z,32.97
2017-11-04T05:36:46.546Z,33.07
2017-11-04T05:39:14.810Z,32.53
2017-11-04T05:41:43.065Z,31.23
2017-11-04T05:44:10.572Z,32.07
2017-11-04T05:46:38.065Z,30.77
2017-11-04T05:49:05.556Z,29.73
2017-11-04T05:51:33.832Z,33.23
2017-11-04T05:54:02.108Z,31.43
2017-11-04T05:56:29.628Z,31.73
2017-11-04T05:58:57.136Z,32.27
2017-11-04T06:01:24.643Z,32.77
2017-11-04T06:03:52.908Z,31.80
2017-11-04T06:06:20.419Z,32.37
2017-11-04T06:08:47.946Z,32.43
2017-11-04T06:11:15.446Z,31.77
2017-11-04T06:13:42.976Z,32.03
2017-11-04T06:16:11.255Z,31.53
2017-11-04T06:18:38.849Z,33.63
2017-11-04T06:21:06.361Z,32.70
2017-11-04T06:23:34.625Z,32.63
2017-11-04T06:26:02.128Z,34.43
2017-11-04T06:28:29.648Z,32.23
2017-11-04T06:30:57.901Z,33.23
2017-11-04T06:33:25.388Z,31.57
2017-11-04T06:35:53.692Z,33.97
2017-11-04T06:38:21.187Z,34.00
2017-11-04T06:40:48.696Z,34.70
2017-11-04T06:43:16.217Z,32.47
2017-11-04T06:45:43.715Z,31.97
2017-11-04T06:48:11.212Z,33.60
2017-11-04T06:50:38.734Z,33.80
2017-11-04T06:53:06.232Z,32.60
2017-11-04T06:55:33.736Z,33.97
2017-11-04T06:58:01.444Z,33.97
2017-11-04T07:00:28.968Z,34.57
2017-11-04T07:02:56.448Z,32.57
2017-11-04T07:05:23.972Z,32.90
2017-11-04T07:07:51.470Z,32.20
2017-11-04T07:10:19.018Z,32.03
2017-11-04T07:12:46.542Z,33.50
2017-11-04T07:15:14.088Z,34.10
2017-11-04T07:17:42.345Z,34.03
2017-11-04T07:20:10.663Z,35.30
2017-11-04T07:22:38.154Z,32.87
2017-11-04T07:25:05.652Z,33.73
2017-11-04T07:27:33.952Z,32.13
2017-11-04T07:30:01.448Z,34.47
2017-11-04T07:32:28.979Z,33.80
2017-11-04T07:34:56.524Z,32.00
2017-11-04T07:37:24.018Z,33.47
2017-11-04T07:39:51.582Z,32.03
2017-11-04T07:42:19.087Z,32.17
2017-11-04T07:44:46.586Z,32.17
2017-11-04T07:47:14.096Z,31.77
2017-11-04T07:49:41.615Z,32.07
2017-11-04T07:52:09.115Z,32.20
2017-11-04T07:54:36.690Z,30.20
2017-11-04T07:57:04.227Z,30.40
2017-11-04T07:59:31.730Z,29.80
2017-11-04T08:01:59.233Z,31.13
2017-11-04T08:04:27.525Z,30.07
2017-11-04T08:06:55.024Z,29.87
2017-11-04T08:09:22.531Z,28.90
2017-11-04T08:11:50.064Z,29.37
2017-11-04T08:14:18.346Z,28.53
2017-11-04T08:16:46.630Z,27.53
2017-11-04T08:19:14.912Z,28.20
2017-11-04T08:21:42.431Z,27.40
2017-11-04T08:24:09.950Z,28.00
2017-11-04T08:26:37.474Z,27.93
2017-11-04T08:29:05.746Z,27.80
2017-11-04T08:31:34.024Z,26.97
2017-11-04T08:34:02.512Z,27.13
2017-11-04T08:36:30.029Z,26.70
2017-11-04T08:38:57.550Z,28.90
2017-11-04T08:41:25.090Z,27.87
2017-11-04T08:43:53.102Z,28.03
2017-11-04T08:46:20.814Z,29.20
2017-11-04T08:48:48.549Z,27.33
2017-11-04T08:51:16.826Z,27.27
2017-11-04T08:53:44.373Z,27.27
2017-11-04T08:56:12.004Z,26.90
2017-11-04T08:58:39.505Z,27.23
2017-11-04T09:01:07.036Z,25.73
2017-11-04T09:03:38.837Z,27.30
2017-11-04T09:06:06.615Z,25.60
2017-11-04T09:08:34.373Z,25.83
2017-11-04T09:11:01.933Z,26.07
2017-11-04T09:13:29.456Z,25.40
2017-11-04T09:15:58.193Z,24.80
2017-11-04T09:18:25.738Z,26.77
2017-11-04T09:20:53.249Z,23.63
2017-11-04T09:23:20.756Z,25.33
2017-11-04T09:25:48.919Z,25.07
2017-11-04T09:28:16.574Z,26.53
2017-11-04T09:30:45.237Z,25.37
2017-11-04T09:33:13.651Z,25.70
2017-11-04T09:35:41.153Z,23.70
2017-11-04T09:38:08.744Z,24.23
2017-11-04T09:40:37.507Z,24.57
2017-11-04T09:43:05.066Z,23.67
2017-11-04T09:45:32.837Z,24.20
2017-11-04T09:48:01.125Z,23.97
2017-11-04T09:50:29.406Z,23.47
2017-11-04T09:52:58.190Z,24.10
2017-11-04T09:55:27.317Z,23.00
2017-11-04T09:57:55.633Z,23.47
2017-11-04T10:00:23.135Z,22.87
2017-11-04T10:02:50.646Z,22.97
2017-11-04T10:05:18.774Z,21.77
2017-11-04T10:07:46.426Z,21.73
2017-11-04T10:10:14.116Z,21.70
2017-11-04T10:12:41.736Z,21.17
2017-11-04T10:15:09.237Z,21.20
2017-11-04T10:17:37.434Z,20.13
2017-11-04T10:20:04.992Z,20.37
2017-11-04T10:22:33.257Z,20.13
2017-11-04T10:25:00.800Z,18.63
2017-11-04T10:27:28.345Z,17.90
2017-11-04T10:29:56.405Z,17.87
2017-11-04T10:32:23.923Z,17.17
2017-11-04T10:34:52.201Z,16.93
2017-11-04T10:37:20.464Z,17.10
2017-11-04T10:39:48.858Z,17.13
2017-11-04T10:42:17.541Z,17.00
2017-11-04T10:44:45.821Z,17.10
2017-11-04T10:47:13.341Z,17.50
2017-11-04T10:49:40.863Z,18.00
2017-11-04T10:52:08.362Z,17.00
2017-11-04T10:54:35.885Z,17.53
2017-11-04T10:57:03.471Z,18.43
2017-11-04T10:59:30.976Z,17.67
2017-11-04T11:01:59.413Z,17.57
2017-11-04T11:04:26.922Z,17.93
2017-11-04T11:06:54.453Z,18.40
2017-11-04T11:09:23.081Z,17.47
2017-11-04T11:11:50.589Z,17.30
2017-11-04T11:14:18.861Z,17.17
2017-11-04T11:16:46.478Z,16.27
2017-11-04T11:19:13.974Z,16.90
2017-11-04T11:21:42.250Z,16.63
2017-11-04T11:24:10.544Z,15.83
2017-11-04T11:26:38.044Z,16.67
2017-11-04T11:29:05.555Z,15.77
2017-11-04T11:31:33.073Z,16.33
2017-11-04T11:34:00.586Z,14.40
2017-11-04T11:36:28.124Z,15.23
2017-11-04T11:38:55.712Z,14.77
2017-11-04T11:41:23.203Z,14.00
2017-11-04T11:43:50.769Z,13.90
2017-11-04T11:46:18.287Z,13.23
2017-11-04T11:48:45.788Z,13.93
2017-11-04T11:51:13.291Z,14.03
2017-11-04T11:53:40.817Z,13.47
2017-11-04T11:56:09.091Z,13.10
2017-11-04T11:58:37.368Z,14.77
2017-11-04T12:01:05.675Z,11.50
2017-11-04T12:03:33.190Z,12.73
2017-11-04T12:06:01.484Z,13.27
2017-11-04T12:08:29.007Z,12.33
2017-11-04T12:10:56.527Z,11.43
2017-11-04T12:13:24.027Z,12.80
2017-11-04T12:15:51.553Z,11.73
2017-11-04T12:18:19.055Z,12.37
2017-11-04T12:20:47.313Z,12.33
2017-11-04T12:23:14.831Z,12.70
2017-11-04T12:25:42.369Z,11.87
2017-11-04T12:28:09.869Z,11.07
2017-11-04T12:30:37.395Z,10.80
2017-11-04T12:33:04.917Z,12.03
2017-11-04T12:35:33.572Z,11.20
2017-11-04T12:38:01.093Z,12.23
2017-11-04T12:40:29.481Z,11.90
2017-11-04T12:42:57.029Z,11.77
2017-11-04T12:45:24.549Z,11.13
2017-11-04T12:47:52.803Z,9.53
2017-11-04T12:50:21.704Z,10.37
2017-11-04T12:52:49.993Z,10.13
2017-11-04T12:55:18.264Z,9.13
2017-11-04T12:57:46.541Z,8.47
2017-11-04T13:00:14.819Z,8.60
2017-11-04T13:02:43.590Z,8.83
2017-11-04T13:05:11.082Z,8.27
2017-11-04T13:07:38.613Z,8.70
2017-11-04T13:10:06.890Z,9.07
2017-11-04T13:12:34.438Z,8.97
2017-11-04T13:15:01.971Z,9.50
2017-11-04T13:17:29.496Z,8.97
2017-11-04T13:19:57.000Z,9.37
2017-11-04T13:22:24.546Z,11.30
2017-11-04T13:24:52.043Z,9.67
2017-11-04T13:27:20.544Z,10.43
2017-11-04T13:29:48.070Z,10.00
2017-11-04T13:32:16.347Z,10.20
2017-11-04T13:34:45.593Z,10.33
2017-11-04T13:37:13.113Z,10.50
2017-11-04T13:39:41.369Z,10.07
2017-11-04T13:42:08.874Z,10.20
2017-11-04T13:44:36.395Z,9.80
2017-11-04T13:47:04.664Z,11.03
2017-11-04T13:49:32.934Z,11.10
2017-11-04T13:52:02.648Z,11.13
2017-11-04T13:54:30.920Z,11.77
2017-11-04T13:56:59.189Z,12.03
2017-11-04T13:59:27.509Z,11.00
2017-11-04T14:01:55.004Z,11.10
2017-11-04T14:04:22.515Z,11.37
2017-11-04T14:06:50.036Z,11.30
2017-11-04T14:09:18.300Z,11.80
2017-11-04T14:11:46.568Z,14.53
2017-11-04T14:14:14.092Z,11.90
2017-11-04T14:16:41.626Z,14.30
2017-11-04T14:19:09.128Z,13.70
2017-11-04T14:21:36.654Z,13.83
2017-11-04T14:24:05.026Z,13.70
2017-11-04T14:26:32.533Z,13.50
2017-11-04T14:29:00.068Z,14.53
2017-11-04T14:31:27.571Z,14.67
2017-11-04T14:33:55.848Z,14.67
2017-11-04T14:36:24.137Z,13.90
2017-11-04T14:38:52.410Z,14.50
2017-11-04T14:41:20.696Z,14.87
2017-11-04T14:43:48.294Z,14.13
2017-11-04T14:46:15.791Z,15.87
2017-11-04T14:48:44.158Z,16.20
2017-11-04T14:51:11.680Z,16.83
2017-11-04T14:53:39.185Z,17.23
2017-11-04T14:56:07.470Z,14.53
2017-11-04T14:58:35.752Z,16.00
2017-11-04T15:01:03.274Z,14.97
2017-11-04T15:03:31.645Z,15.33
2017-11-04T15:05:59.160Z,15.47
2017-11-04T15:08:27.428Z,14.90
2017-11-04T15:10:54.920Z,15.73
2017-11-04T15:13:22.432Z,16.53
2017-11-04T15:15:49.946Z,15.07
2017-11-04T15:18:17.676Z,15.77
2017-11-04T15:20:45.196Z,13.60
2017-11-04T15:23:12.752Z,14.03
2017-11-04T15:25:41.064Z,15.50
2017-11-04T15:28:09.404Z,16.03
2017-11-04T15:30:37.684Z,16.73
2017-11-04T15:33:05.949Z,24.33
2017-11-04T15:35:34.687Z,16.50
2017-11-04T15:38:02.736Z,22.83
2017-11-04T15:40:30.225Z,18.17
2017-11-04T15:42:57.769Z,16.03
2017-11-04T15:45:26.246Z,17.40
2017-11-04T15:47:54.487Z,16.47
2017-11-04T15:50:22.052Z,20.93
2017-11-04T15:52:49.566Z,16.13
2017-11-04T15:55:17.138Z,14.33
2017-11-04T15:57:45.465Z,16.93
2017-11-04T16:00:12.976Z,19.00
2017-11-04T16:02:41.538Z,18.40
2017-11-04T16:05:09.061Z,14.63
2017-11-04T16:07:38.162Z,16.43
2017-11-04T16:10:05.707Z,17.03
2017-11-04T16:12:33.962Z,16.00
2017-11-04T16:15:01.498Z,16.07
2017-11-04T16:17:29.791Z,16.07
2017-11-04T16:19:57.339Z,15.27
2017-11-04T16:22:26.480Z,15.03
2017-11-04T16:24:55.608Z,15.20
2017-11-04T16:27:23.134Z,16.00
2017-11-04T16:29:50.658Z,15.83
2017-11-04T16:32:18.182Z,17.23
2017-11-04T16:34:45.758Z,16.60
2017-11-04T16:37:14.074Z,15.03
2017-11-04T16:39:41.781Z,15.50
2017-11-04T16:44:44.096Z,15.87
2017-11-04T16:47:11.614Z,15.97
2017-11-04T16:49:39.109Z,16.67
2017-11-04T16:52:06.624Z,14.93
2017-11-04T16:54:34.168Z,14.03
2017-11-04T16:57:01.952Z,14.07
2017-11-04T16:59:29.463Z,14.73
2017-11-04T17:01:56.999Z,13.73
2017-11-04T17:04:24.522Z,14.27
2017-11-04T17:06:52.046Z,14.10
2017-11-04T17:09:19.582Z,13.57
2017-11-04T17:11:47.087Z,16.57
2017-11-04T17:14:15.201Z,21.50
2017-11-04T17:16:42.754Z,12.33
2017-11-04T17:19:11.018Z,13.67
2017-11-04T17:21:39.293Z,13.97
2017-11-04T17:24:09.708Z,13.97
2017-11-04T17:26:38.222Z,14.33
2017-11-04T17:29:05.750Z,14.50
2017-11-04T17:31:34.108Z,15.67
2017-11-04T17:34:01.618Z,22.43
2017-11-04T17:36:29.132Z,14.13
2017-11-04T17:38:57.426Z,14.07
2017-11-04T17:41:25.770Z,18.37
2017-11-04T17:43:54.074Z,14.50
2017-11-04T17:46:22.376Z,14.60
2017-11-04T17:48:49.876Z,15.07
2017-11-04T17:51:18.208Z,15.13
2017-11-04T17:53:47.045Z,15.20
2017-11-04T17:56:15.322Z,15.10
2017-11-04T17:58:42.935Z,16.20
2017-11-04T18:01:11.225Z,16.53
2017-11-04T18:03:40.507Z,17.57
2017-11-04T18:06:07.998Z,16.83
2017-11-04T18:08:35.624Z,16.70
2017-11-04T18:11:03.256Z,17.77
2017-11-04T18:13:31.530Z,17.57
2017-11-04T18:15:59.884Z,17.93
2017-11-04T18:18:28.182Z,17.23
2017-11-04T18:20:57.238Z,16.60
2017-11-04T18:23:24.787Z,17.07
2017-11-04T18:25:52.801Z,17.03
2017-11-04T18:28:21.076Z,17.67
2017-11-04T18:30:50.248Z,17.10
2017-11-04T18:33:17.776Z,17.17
2017-11-04T18:35:45.375Z,17.80
2017-11-04T18:38:12.895Z,18.10
2017-11-04T18:40:40.565Z,19.00
2017-11-04T18:43:08.087Z,17.10
2017-11-04T18:45:35.624Z,17.33
2017-11-04T18:48:03.906Z,17.53
2017-11-04T18:50:32.185Z,23.93
2017-11-04T18:53:00.484Z,28.40
2017-11-04T18:55:28.012Z,17.00
2017-11-04T18:57:56.277Z,26.67
2017-11-04T19:00:24.625Z,20.23
2017-11-04T19:02:52.145Z,25.90
2017-11-04T19:05:19.665Z,17.43
2017-11-04T19:07:53.858Z,18.07
2017-11-04T19:10:21.754Z,22.47
2017-11-04T19:12:50.029Z,25.87
2017-11-04T19:15:19.065Z,18.73
2017-11-04T19:17:47.095Z,18.63
2017-11-04T19:20:15.389Z,18.33
2017-11-04T19:22:42.909Z,19.70
2017-11-04T19:25:11.211Z,18.13
2017-11-04T19:27:39.479Z,18.60
2017-11-04T19:30:07.802Z,17.20
2017-11-04T19:32:35.301Z,17.43
2017-11-04T19:35:03.588Z,18.23
2017-11-04T19:37:31.168Z,16.93
2017-11-04T19:39:58.661Z,17.73
2017-11-04T19:42:26.180Z,17.73
2017-11-04T19:44:53.713Z,21.70
2017-11-04T19:47:21.988Z,16.83
2017-11-04T19:49:50.397Z,16.43
2017-11-04T19:52:17.930Z,17.80
2017-11-04T19:54:46.198Z,15.77
2017-11-04T19:57:15.497Z,16.93
2017-11-04T19:59:44.635Z,15.67
2017-11-04T20:02:12.144Z,17.63
2017-11-04T20:04:40.445Z,18.00
2017-11-04T20:07:08.878Z,18.40
2017-11-04T20:09:36.392Z,17.77
2017-11-04T20:12:03.899Z,17.83
2017-11-04T20:14:31.478Z,17.97
2017-11-04T20:17:00.740Z,17.50
2017-11-04T20:19:28.261Z,17.97
2017-11-04T20:21:55.812Z,17.93
2017-11-04T20:24:23.357Z,19.33
2017-11-04T20:26:51.645Z,19.23
2017-11-04T20:29:19.228Z,19.27
2017-11-04T20:31:47.541Z,21.10
2017-11-04T20:34:15.033Z,18.60
2017-11-04T20:36:42.558Z,18.27
2017-11-04T20:39:10.061Z,19.03
2017-11-04T20:41:37.565Z,17.33
2017-11-04T20:44:05.091Z,18.60
2017-11-04T20:46:32.628Z,17.40
2017-11-04T20:49:00.139Z,17.93
2017-11-04T20:51:27.787Z,17.27
2017-11-04T20:53:55.348Z,17.07
2017-11-04T20:56:22.849Z,17.57
2017-11-04T20:58:51.253Z,17.83
2017-11-04T21:01:18.785Z,18.10
2017-11-04T21:03:46.337Z,19.57
2017-11-04T21:06:15.223Z,19.80
2017-11-04T21:08:43.497Z,22.27
2017-11-04T21:11:12.572Z,20.73
2017-11-04T21:13:40.837Z,19.27
2017-11-04T21:16:08.447Z,20.57
2017-11-04T21:18:35.949Z,22.07
2017-11-04T21:21:04.227Z,19.13
2017-11-04T21:23:32.424Z,16.63
2017-11-04T21:26:00.714Z,15.57
2017-11-04T21:28:28.293Z,16.17
2017-11-04T21:30:55.827Z,14.07
2017-11-04T21:33:24.163Z,13.73
2017-11-04T21:35:51.832Z,14.93
2017-11-04T21:38:19.331Z,12.83
2017-11-04T21:40:46.857Z,12.73
2017-11-04T21:43:14.378Z,13.03
2017-11-04T21:45:42.033Z,12.57
2017-11-04T21:48:10.121Z,11.33
2017-11-04T21:50:37.656Z,10.77
2017-11-04T21:53:05.171Z,11.30
2017-11-04T21:55:33.451Z,10.87
2017-11-04T21:58:02.359Z,9.97
2017-11-04T22:00:29.871Z,10.27
2017-11-04T22:02:57.373Z,9.33
2017-11-04T22:05:24.911Z,9.93
2017-11-04T22:07:53.165Z,9.57
2017-11-04T22:10:21.080Z,10.27
2017-11-04T22:12:48.773Z,9.63
2017-11-04T22:15:17.905Z,11.30
2017-11-04T22:17:46.160Z,8.80
2017-11-04T22:20:13.696Z,9.60
2017-11-04T22:22:41.509Z,8.83
2017-11-04T22:25:09.025Z,9.50
2017-11-04T22:27:36.535Z,8.77
2017-11-04T22:30:04.062Z,8.20
2017-11-04T22:32:32.547Z,10.23
2017-11-04T22:35:00.871Z,8.60
2017-11-04T22:37:29.250Z,8.27
2017-11-04T22:39:57.178Z,7.70
2017-11-04T22:42:26.498Z,8.03
2017-11-04T22:44:54.858Z,8.70
2017-11-04T22:47:23.555Z,7.63
2017-11-04T22:49:51.163Z,7.80
2017-11-04T22:52:18.654Z,7.40
2017-11-04T22:54:46.986Z,8.73
2017-11-04T22:57:14.516Z,9.00
2017-11-04T22:59:42.027Z,8.57
2017-11-04T23:02:09.544Z,7.93
2017-11-04T23:04:37.678Z,7.80
2017-11-04T23:07:05.988Z,7.43
2017-11-04T23:09:33.484Z,7.23
2017-11-04T23:12:01.001Z,7.93
2017-11-04T23:14:28.515Z,8.17
2017-11-04T23:16:56.793Z,8.53
2017-11-04T23:19:25.092Z,8.40
2017-11-04T23:21:52.612Z,9.40
2017-11-04T23:24:20.136Z,9.10
2017-11-04T23:26:47.669Z,9.83
2017-11-04T23:29:15.187Z,11.63
2017-11-04T23:31:43.474Z,12.00
2017-11-04T23:34:11.775Z,12.07
2017-11-04T23:36:39.282Z,11.07
2017-11-04T23:39:06.800Z,11.17
2017-11-04T23:41:34.332Z,12.37
2017-11-04T23:44:02.854Z,12.17
2017-11-04T23:46:30.361Z,12.87
2017-11-04T23:48:58.672Z,12.70
2017-11-04T23:51:26.188Z,11.83
2017-11-04T23:53:54.544Z,12.13
2017-11-04T23:56:22.119Z,13.40
2017-11-04T23:58:50.398Z,12.97
